Time;durP1;ratioP1;P1;durP2;ratioP2;P2;SDS_P1;SDS_P2;PMS_P1;PMS_P2;Temp;Humidity;BMP_temperature;BMP_pressure;BME280_temperature;BME280_humidity;BME280_pressure;Samples;Min_cycle;Max_cycle;Signal;HPM_P1;HPM_P2
2021/08/05 00:01:05;;;;;;;6.90;5.10;;;;;;;16.98;75.29;98246.72;260919;1089;25877;-68
2021/08/05 00:06:09;;;;;;;7.75;5.60;;;;;;;17.02;75.48;98245.68;260883;1090;24063;-69
2021/08/05 00:11:15;;;;;;;6.47;5.77;;;;;;;17.05;75.43;98244.98;260867;1090;22955;-70
2021/08/05 00:16:20;;;;;;;6.65;5.95;;;;;;;17.04;75.58;98235.31;260866;1090;26242;-70
2021/08/05 00:21:25;;;;;;;7.70;5.90;;;;;;;17.03;75.36;98236.44;261748;1090;27634;-69
2021/08/05 00:26:30;;;;;;;7.70;5.60;;;;;;;17.07;75.53;98236.55;261811;1090;22843;-70
2021/08/05 00:31:34;;;;;;;9.57;5.57;;;;;;;17.10;75.48;98242.05;260887;1090;22791;-69
2021/08/05 00:36:38;;;;;;;8.90;5.45;;;;;;;17.07;75.60;98225.73;261873;1088;22782;-69
2021/08/05 00:41:42;;;;;;;9.50;5.65;;;;;;;17.06;75.70;98238.45;260970;1089;25017;-70
2021/08/05 00:46:45;;;;;;;8.10;6.50;;;;;;;17.09;75.89;98224.23;260983;1090;22763;-69
2021/08/05 00:52:36;;;;;;;;;;;;;;;;;;;;;
2021/08/05 00:58:06;;;;;;;11.20;6.20;;;;;;;17.10;75.82;98214.21;260811;1090;22783;-69
2021/08/05 01:03:27;;;;;;;9.25;5.88;;;;;;;17.10;75.81;98203.39;261342;1090;22830;-70
2021/08/05 01:08:35;;;;;;;10.40;6.60;;;;;;;17.18;75.95;98204.34;260980;1090;22944;-69
2021/08/05 01:13:59;;;;;;;11.47;7.17;;;;;;;17.20;76.08;98202.88;260940;1089;22882;-69
2021/08/05 01:19:27;;;;;;;11.75;7.00;;;;;;;17.20;76.10;98191.27;261773;1090;25954;-70
2021/08/05 01:24:36;;;;;;;11.15;6.60;;;;;;;17.21;76.01;98182.80;260898;1090;22940;-70
2021/08/05 01:29:40;;;;;;;10.38;7.43;;;;;;;17.27;76.33;98180.63;260973;1090;22782;-69
2021/08/05 01:34:44;;;;;;;10.75;7.05;;;;;;;17.25;76.35;98163.94;260919;1090;25877;-69
2021/08/05 01:39:49;;;;;;;10.03;6.87;;;;;;;17.22;76.46;98168.14;260795;1090;24358;-69
2021/08/05 01:44:53;;;;;;;12.63;7.20;;;;;;;17.19;76.80;98168.81;260974;1090;24029;-71
2021/08/05 01:49:58;;;;;;;9.75;6.80;;;;;;;17.13;76.91;98172.92;261052;1090;22786;-69
2021/08/05 01:55:05;;;;;;;12.20;6.85;;;;;;;17.10;77.27;98173.63;261884;1090;22828;-70
2021/08/05 02:00:12;;;;;;;10.43;7.10;;;;;;;17.07;77.60;98164.27;261506;1090;22807;-70
2021/08/05 02:05:24;;;;;;;9.83;7.63;;;;;;;17.02;77.99;98166.44;261793;1089;24384;-70
2021/08/05 02:10:44;;;;;;;10.10;7.93;;;;;;;16.96;78.18;98170.52;261758;1090;22950;-70
2021/08/05 02:15:53;;;;;;;11.45;7.85;;;;;;;16.91;78.62;98168.85;261795;1090;23221;-70
2021/08/05 02:20:59;;;;;;;9.15;7.05;;;;;;;16.86;78.93;98161.75;261768;1090;26152;-70
2021/08/05 02:26:04;;;;;;;9.75;6.60;;;;;;;16.82;79.11;98170.91;261945;1090;22809;-71
2021/08/05 02:31:08;;;;;;;11.27;7.47;;;;;;;16.75;79.08;98166.08;261086;1090;22876;-70
2021/08/05 02:36:13;;;;;;;8.85;7.15;;;;;;;16.70;79.41;98160.91;261858;1089;22731;-70
2021/08/05 02:41:18;;;;;;;9.80;7.30;;;;;;;16.71;80.02;98167.89;260929;1090;22876;-71
2021/08/05 02:46:24;;;;;;;10.70;7.20;;;;;;;16.72;80.19;98174.89;260979;1090;22856;-69
2021/08/05 02:51:30;;;;;;;8.45;7.55;;;;;;;16.70;80.19;98164.39;261979;1090;22862;-71
2021/08/05 02:56:56;;;;;;;8.25;7.28;;;;;;;16.63;80.35;98160.71;261825;1090;22816;-71
2021/08/05 03:02:20;;;;;;;9.60;7.70;;;;;;;16.51;80.78;98159.63;261778;1090;22902;-70
2021/08/05 03:07:25;;;;;;;9.90;7.75;;;;;;;16.45;81.00;98157.49;261795;1089;22837;-71
2021/08/05 03:12:28;;;;;;;9.20;8.00;;;;;;;16.37;81.36;98140.30;261808;1091;22956;-71
2021/08/05 03:17:33;;;;;;;11.50;8.80;;;;;;;16.32;81.65;98135.90;261977;1089;24353;-71
2021/08/05 03:22:39;;;;;;;11.45;8.50;;;;;;;16.27;82.34;98135.35;261838;1089;22763;-73
2021/08/05 03:27:50;;;;;;;14.97;9.97;;;;;;;16.22;82.40;98129.05;261833;1090;22760;-72
2021/08/05 03:34:04;;;;;;;;;;;;;;;;;;;;;
2021/08/05 03:39:45;;;;;;;11.75;9.55;;;;;;;16.18;83.18;98132.79;261880;1090;22939;-71
2021/08/05 03:45:09;;;;;;;13.75;10.95;;;;;;;16.24;84.34;98120.60;261972;1090;22806;-73
2021/08/05 03:56:54;;;;;;;10.78;7.90;;;;;;;16.36;84.16;98098.95;261970;1090;22819;-73
2021/08/05 04:02:45;;;;;;;10.88;7.93;;;;;;;16.36;84.37;98074.63;261874;1089;26111;-72
2021/08/05 04:15:29;;;;;;;;;;;;;;;;;;;;;
2021/08/05 04:21:25;;;;;;;8.03;6.63;;;;;;;16.41;84.67;98070.88;261833;1088;22790;-74
2021/08/05 04:26:30;;;;;;;9.95;8.95;;;;;;;16.43;85.02;98061.30;261847;1090;22824;-75
2021/08/05 04:32:20;;;;;;;13.73;12.33;;;;;;;16.38;85.16;98050.76;261832;1090;24474;-73
2021/08/05 04:38:06;;;;;;;12.55;11.25;;;;;;;16.33;85.22;98031.30;261855;1090;22759;-74
2021/08/05 04:43:37;;;;;;;13.80;12.40;;;;;;;16.26;85.34;98031.88;261862;1090;23130;-73
2021/08/05 04:48:41;;;;;;;16.18;12.25;;;;;;;16.21;85.35;98030.19;261887;1090;22779;-76
2021/08/05 04:53:44;;;;;;;14.00;12.00;;;;;;;16.20;85.83;98020.53;261925;1090;22760;-75
2021/08/05 04:59:28;;;;;;;;;;;;;;;;;;;;;
2021/08/05 05:05:15;;;;;;;16.05;14.35;;;;;;;16.20;86.52;98006.22;262572;1090;26385;-77
2021/08/05 05:11:20;;;;;;;17.45;15.55;;;;;;;16.20;86.48;97998.92;261933;1093;27121;-74
2021/08/05 05:16:30;;;;;;;11.10;10.00;;;;;;;16.20;86.35;97995.41;261770;1093;22801;-76
2021/08/05 05:22:14;;;;;;;12.60;11.10;;;;;;;16.18;86.53;97998.46;261795;1093;22801;-76
2021/08/05 05:27:50;;;;;;;11.88;10.60;;;;;;;16.20;86.63;97990.01;261716;1093;22783;-77
2021/08/05 05:40:37;;;;;;;10.80;8.73;;;;;;;16.21;86.97;98005.09;262011;1090;22860;-76
2021/08/05 05:46:45;;;;;;;12.10;10.30;;;;;;;16.21;87.12;98010.50;262523;1089;26107;-74
2021/08/05 05:51:59;;;;;;;14.70;11.90;;;;;;;16.27;86.91;98016.45;262568;1089;24311;-75
2021/08/05 05:57:42;;;;;;;11.80;10.50;;;;;;;16.32;87.17;98019.69;262891;1089;22826;-74
2021/08/05 06:03:18;;;;;;;10.90;8.15;;;;;;;16.26;86.73;98018.38;262661;1090;22807;-75
2021/08/05 06:16:11;;;;;;;;;;;;;;;;;;;;;
2021/08/05 06:29:39;;;;;;;;;;;;;;;;;;;;;
2021/08/05 06:35:34;;;;;;;15.30;13.75;;;;;;;16.21;87.25;97984.26;262157;1090;22808;-75
2021/08/05 06:42:30;;;;;;;;;;;;;;;;;;;;;
2021/08/05 06:48:50;;;;;;;;;;;;;;;;;;;;;
2021/08/05 06:55:03;;;;;;;12.17;10.30;;;;;;;16.13;87.44;97973.61;262100;1089;24582;-75
2021/08/05 07:00:10;;;;;;;14.20;12.55;;;;;;;16.13;87.74;97977.11;262141;1090;22888;-74
2021/08/05 07:05:51;;;;;;;;;;;;;;;;;;;;;
2021/08/05 07:11:34;;;;;;;;;;;;;;;;;;;;;
2021/08/05 07:16:56;;;;;;;;;;;;;;;;;;;;;
2021/08/05 07:22:51;;;;;;;11.05;9.85;;;;;;;16.22;88.51;97968.85;262018;1090;25185;-74
2021/08/05 07:28:01;;;;;;;9.60;8.60;;;;;;;16.27;88.31;97962.40;262251;1090;25681;-75
2021/08/05 07:33:10;;;;;;;10.40;8.07;;;;;;;16.27;88.16;97946.19;262280;1090;24353;-76
2021/08/05 07:38:26;;;;;;;9.95;8.45;;;;;;;16.26;88.18;97945.41;262347;1090;22973;-78
2021/08/05 07:43:41;;;;;;;10.80;9.70;;;;;;;16.18;88.18;97925.52;262735;1090;22792;-77
2021/08/05 07:48:56;;;;;;;9.50;8.50;;;;;;;16.32;88.09;97962.16;262345;1090;23008;-77
2021/08/05 07:54:01;;;;;;;12.40;10.15;;;;;;;16.36;88.32;97950.30;262242;1090;23468;-76
2021/08/05 07:59:15;;;;;;;13.15;11.80;;;;;;;16.42;88.28;97948.13;262435;1090;22797;-76
2021/08/05 08:05:24;;;;;;;;;;;;;;;;;;;;;
2021/08/05 08:10:36;;;;;;;14.63;12.10;;;;;;;16.54;88.34;97937.24;262347;1090;26249;-77
2021/08/05 08:16:54;;;;;;;;;;;;;;;;;;;;;
2021/08/05 08:22:36;;;;;;;10.50;9.50;;;;;;;16.70;88.34;97920.23;262309;1093;23067;-78
2021/08/05 08:28:27;;;;;;;11.85;8.60;;;;;;;16.82;88.39;97914.73;262280;1090;22949;-78
2021/08/05 08:33:42;;;;;;;10.15;9.15;;;;;;;16.89;87.91;97931.16;262347;1090;22779;-75
2021/08/05 08:38:51;;;;;;;9.45;8.55;;;;;;;16.84;87.87;97925.20;263183;1090;22786;-76
2021/08/05 08:44:16;;;;;;;8.93;7.90;;;;;;;16.83;87.90;97918.22;262801;1090;22908;-75
2021/08/05 08:49:38;;;;;;;10.95;9.88;;;;;;;16.79;87.88;97901.11;263006;1089;23366;-75
2021/08/05 08:54:56;;;;;;;7.57;6.93;;;;;;;16.73;87.72;97898.70;262921;1090;23340;-74
2021/08/05 09:00:09;;;;;;;10.00;9.00;;;;;;;16.70;87.99;97896.67;263112;1088;23562;-75
2021/08/05 09:05:39;;;;;;;9.60;8.70;;;;;;;16.65;87.82;97886.14;262995;1090;22874;-74
2021/08/05 09:10:43;;;;;;;9.93;8.93;;;;;;;16.60;88.11;97880.98;262840;1090;22812;-76
2021/08/05 09:15:53;;;;;;;9.85;8.95;;;;;;;16.57;88.35;97876.29;263033;1089;22805;-74
2021/08/05 09:21:25;;;;;;;10.97;9.87;;;;;;;16.56;88.49;97875.52;262869;1089;22869;-74
2021/08/05 09:26:47;;;;;;;9.73;8.73;;;;;;;16.53;88.54;97876.19;262731;1089;22816;-74
2021/08/05 09:31:53;;;;;;;10.58;9.50;;;;;;;16.51;88.66;97875.77;262659;1090;22872;-73
2021/08/05 09:37:03;;;;;;;8.60;7.70;;;;;;;16.47;88.50;97872.19;262895;1089;22820;-74
2021/08/05 09:42:16;;;;;;;7.85;7.15;;;;;;;16.36;88.54;97871.15;262609;1089;22784;-73
2021/08/05 09:47:42;;;;;;;7.40;6.50;;;;;;;16.26;88.68;97869.75;262343;1090;24188;-73
2021/08/05 09:52:47;;;;;;;6.50;5.90;;;;;;;16.20;88.70;97865.72;263470;1090;22789;-73
2021/08/05 09:58:06;;;;;;;7.15;6.40;;;;;;;16.12;88.90;97861.27;262569;1090;22782;-74
2021/08/05 10:03:45;;;;;;;8.43;7.50;;;;;;;15.99;88.87;97860.55;262553;1090;25871;-74
2021/08/05 10:09:26;;;;;;;7.40;6.70;;;;;;;15.89;89.18;97857.25;262410;1090;22888;-79
2021/08/05 10:14:33;;;;;;;10.45;9.45;;;;;;;15.80;89.46;97847.73;263199;1090;22881;-76
2021/08/05 10:19:54;;;;;;;18.13;15.97;;;;;;;15.78;89.90;97858.05;263954;1089;22863;-75
2021/08/05 10:25:08;;;;;;;17.65;15.85;;;;;;;15.77;90.00;97841.07;263882;1089;23610;-76
2021/08/05 10:30:32;;;;;;;17.95;15.95;;;;;;;15.81;90.61;97835.78;263431;1090;22807;-75
2021/08/05 10:35:38;;;;;;;16.60;14.80;;;;;;;15.79;90.38;97811.83;263347;1088;25248;-77
2021/08/05 10:40:43;;;;;;;12.00;10.40;;;;;;;15.87;90.50;97818.98;263474;1089;22846;-75
2021/08/05 10:46:02;;;;;;;10.45;9.45;;;;;;;15.90;90.94;97799.38;263694;1090;22895;-75
2021/08/05 10:51:11;;;;;;;13.80;12.45;;;;;;;16.02;91.22;97795.03;264035;1089;25851;-77
2021/08/05 10:56:23;;;;;;;16.90;14.27;;;;;;;16.11;90.97;97794.88;264967;1088;25339;-75
2021/08/05 11:02:00;;;;;;;15.65;13.85;;;;;;;16.10;91.06;97780.57;263882;1090;23339;-76
2021/08/05 11:07:33;;;;;;;12.40;10.50;;;;;;;16.07;91.02;97757.77;263941;1090;22866;-74
2021/08/05 11:12:40;;;;;;;10.70;9.60;;;;;;;16.06;91.06;97758.09;263829;1089;22812;-76
2021/08/05 11:18:10;;;;;;;13.80;12.35;;;;;;;16.00;90.99;97754.86;263838;1090;22804;-76
2021/08/05 11:23:30;;;;;;;10.73;9.70;;;;;;;16.05;91.33;97746.51;264026;1090;22744;-76
2021/08/05 11:28:52;;;;;;;13.10;11.80;;;;;;;16.14;91.54;97742.84;263874;1090;22791;-77
2021/08/05 11:34:13;;;;;;;12.65;11.45;;;;;;;16.24;91.65;97728.79;264351;1089;22729;-77
2021/08/05 11:39:47;;;;;;;12.70;11.50;;;;;;;16.35;91.11;97729.04;264408;1090;22774;-76
2021/08/05 11:45:03;;;;;;;14.20;12.90;;;;;;;16.39;91.09;97727.20;264269;1089;22822;-77
2021/08/05 11:50:26;;;;;;;12.80;11.55;;;;;;;16.45;91.25;97716.90;263583;1089;23175;-76
2021/08/05 11:55:51;;;;;;;11.45;10.30;;;;;;;16.52;91.30;97703.53;263570;1090;22791;-76
2021/08/05 12:01:00;;;;;;;15.55;13.95;;;;;;;16.57;91.35;97709.45;263842;1090;22960;-77
2021/08/05 12:06:07;;;;;;;13.65;12.35;;;;;;;16.60;91.20;97697.14;265102;1089;23337;-77
2021/08/05 12:11:24;;;;;;;11.43;10.27;;;;;;;16.62;90.94;97696.78;264799;1089;23251;-74
2021/08/05 12:16:32;;;;;;;12.40;11.30;;;;;;;16.68;91.23;97684.56;263866;1090;25906;-75
2021/08/05 12:21:51;;;;;;;14.10;12.70;;;;;;;16.78;91.33;97685.92;264368;1089;22811;-75
2021/08/05 12:27:24;;;;;;;12.60;11.40;;;;;;;16.81;91.35;97672.45;264768;1090;22880;-77
2021/08/05 12:33:09;;;;;;;9.60;8.63;;;;;;;16.88;91.11;97669.92;264649;1088;22852;-75
2021/08/05 12:38:23;;;;;;;10.27;8.43;;;;;;;16.87;91.23;97657.52;264554;1089;23443;-75
2021/08/05 12:43:41;;;;;;;8.85;7.95;;;;;;;16.88;91.51;97655.59;263575;1089;24355;-75
2021/08/05 12:48:52;;;;;;;10.35;8.25;;;;;;;16.92;91.38;97651.84;263471;1090;22790;-75
2021/08/05 12:54:16;;;;;;;8.20;7.45;;;;;;;16.97;91.68;97648.08;263329;1090;22797;-76
2021/08/05 12:59:43;;;;;;;5.85;5.20;;;;;;;17.03;91.55;97637.75;263246;1089;22937;-75
2021/08/05 13:05:41;;;;;;;10.05;9.05;;;;;;;17.09;91.85;97634.36;263529;1090;22893;-75
2021/08/05 13:11:46;;;;;;;6.65;6.05;;;;;;;17.12;91.54;97622.05;263004;1089;23043;-76
2021/08/05 13:17:10;;;;;;;7.43;6.67;;;;;;;17.13;91.49;97617.44;263097;1089;27048;-76
2021/08/05 13:22:17;;;;;;;9.97;8.23;;;;;;;17.17;91.96;97604.75;263319;1089;22779;-78
2021/08/05 13:27:32;;;;;;;8.90;7.80;;;;;;;17.24;91.94;97611.05;264006;1089;22795;-77
2021/08/05 13:33:02;;;;;;;9.35;8.45;;;;;;;17.27;91.64;97612.26;263877;1090;24215;-77
2021/08/05 13:38:49;;;;;;;8.97;7.63;;;;;;;17.29;91.93;97618.08;263194;1089;25934;-79
2021/08/05 13:44:47;;;;;;;9.05;6.75;;;;;;;17.27;91.80;97613.03;263312;1089;22798;-79
2021/08/05 13:50:25;;;;;;;10.10;7.80;;;;;;;17.24;91.62;97602.94;264322;1090;22837;-79
2021/08/05 13:56:03;;;;;;;7.80;6.45;;;;;;;17.22;91.87;97605.23;263519;1090;24204;-77
2021/08/05 14:01:16;;;;;;;6.95;6.15;;;;;;;17.22;91.92;97597.11;262745;1090;22783;-76
2021/08/05 14:06:32;;;;;;;7.33;5.97;;;;;;;17.24;92.26;97592.11;263046;1090;22830;-78
2021/08/05 14:12:37;;;;;;;;;;;;;;;;;;;;;
2021/08/05 14:18:17;;;;;;;7.83;5.93;;;;;;;17.25;92.16;97577.44;262784;1090;24425;-77
2021/08/05 14:23:32;;;;;;;7.80;6.45;;;;;;;17.26;92.13;97570.89;262454;1090;22783;-79
2021/08/05 14:29:18;;;;;;;;;;;;;;;;;;;;;
2021/08/05 14:34:43;;;;;;;5.67;5.10;;;;;;;17.28;92.64;97562.41;262493;1090;22782;-78
2021/08/05 14:40:22;;;;;;;8.60;7.30;;;;;;;17.30;92.58;97562.05;263855;1090;23261;-78
2021/08/05 14:46:21;;;;;;;;;;;;;;;;;;;;;
2021/08/05 14:51:58;;;;;;;;;;;;;;;;;;;;;
2021/08/05 14:58:38;;;;;;;6.40;5.48;;;;;;;17.25;92.56;97539.55;263297;1093;22814;-79
2021/08/05 15:04:56;;;;;;;11.60;9.50;;;;;;;17.27;92.61;97533.78;262738;1093;24153;-79
2021/08/05 15:11:16;;;;;;;6.00;5.40;;;;;;;17.28;92.69;97522.59;263260;1092;22907;-79
2021/08/05 15:16:51;;;;;;;5.40;4.90;;;;;;;17.37;92.99;97514.20;262660;1096;22780;-79
2021/08/05 15:23:03;;;;;;;4.50;3.80;;;;;;;17.44;92.99;97508.13;262743;1095;23964;-79
2021/08/05 15:28:47;;;;;;;4.30;3.20;;;;;;;17.42;92.47;97500.37;263367;1093;22801;-80
2021/08/05 15:34:38;;;;;;;3.83;3.48;;;;;;;17.42;92.32;97500.37;262126;1093;22862;-80
2021/08/05 15:39:43;;;;;;;4.60;3.65;;;;;;;17.39;92.22;97490.27;262303;1093;22830;-78
2021/08/05 15:44:49;;;;;;;5.80;4.80;;;;;;;17.42;92.88;97494.19;262463;1093;24784;-79
2021/08/05 15:50:14;;;;;;;5.10;4.60;;;;;;;17.42;92.26;97489.54;262694;1093;23018;-79
2021/08/05 15:55:34;;;;;;;7.50;6.80;;;;;;;17.39;92.72;97473.23;262931;1092;22801;-79
2021/08/05 16:00:46;;;;;;;5.75;5.25;;;;;;;17.33;91.90;97464.65;262470;1092;22780;-79
2021/08/05 16:06:28;;;;;;;6.10;5.60;;;;;;;17.24;91.98;97466.85;262699;1092;25752;-79
2021/08/05 16:12:07;;;;;;;7.30;6.70;;;;;;;17.18;92.14;97465.59;262850;1093;22920;-79
2021/08/05 16:17:14;;;;;;;5.75;5.25;;;;;;;17.16;92.14;97457.84;263841;1092;22816;-80
2021/08/05 16:22:18;;;;;;;6.45;5.85;;;;;;;17.15;92.41;97456.27;263117;1090;22901;-79
2021/08/05 16:27:22;;;;;;;9.60;8.50;;;;;;;17.12;92.42;97450.82;263778;1090;23305;-77
2021/08/05 16:32:31;;;;;;;;;;;;;;;17.06;92.04;97443.00;263113;1090;22774;-80
2021/08/05 16:37:40;;;;;;;7.25;6.55;;;;;;;17.01;92.35;97437.13;264842;1090;21460;-80
2021/08/05 16:42:48;;;;;;;6.43;5.83;;;;;;;17.01;92.53;97437.13;263255;1090;22809;-78
2021/08/05 16:48:10;;;;;;;;;;;;;;;;;;;;;
2021/08/05 16:53:43;;;;;;;4.97;4.47;;;;;;;16.90;92.28;97428.84;264519;1090;22783;-80
2021/08/05 16:59:16;;;;;;;6.23;5.07;;;;;;;16.86;92.31;97419.89;263298;1093;22810;-79
2021/08/05 17:04:30;;;;;;;5.10;4.50;;;;;;;16.78;92.46;97421.69;263399;1092;22929;-80
2021/08/05 17:10:03;;;;;;;4.10;3.70;;;;;;;16.72;92.67;97415.03;263992;1093;22829;-80
2021/08/05 17:15:59;;;;;;;;;;;;;;;;;;;;;
2021/08/05 17:21:36;;;;;;;2.30;2.10;;;;;;;16.52;92.26;97406.19;263347;1093;22815;-80
2021/08/05 17:27:13;;;;;;;2.70;2.50;;;;;;;16.41;92.73;97406.80;264359;1093;26375;-80
2021/08/05 17:33:22;;;;;;;2.75;2.55;;;;;;;16.34;92.94;97411.30;263829;1092;22873;-79
2021/08/05 17:39:02;;;;;;;11.45;2.95;;;;;;;16.31;93.14;97399.27;264107;1093;22849;-80
2021/08/05 17:44:55;;;;;;;5.10;2.90;;;;;;;16.27;93.31;97406.56;263419;1093;22944;-80
2021/08/05 17:50:22;;;;;;;3.70;3.40;;;;;;;16.22;93.27;97409.55;263184;1093;22824;-79
2021/08/05 17:55:57;;;;;;;;;;;;;;;;;;;;;
2021/08/05 18:01:21;;;;;;;3.30;3.00;;;;;;;16.12;93.44;97400.12;263768;1092;22792;-81
2021/08/05 18:07:04;;;;;;;2.95;2.75;;;;;;;16.05;93.54;97389.95;263353;1092;22809;-79
2021/08/05 18:12:34;;;;;;;4.00;3.70;;;;;;;16.01;93.86;97394.52;263710;1089;22943;-80
2021/08/05 18:18:21;;;;;;;3.60;3.30;;;;;;;15.96;94.09;97383.22;263695;1090;22784;-80
2021/08/05 18:24:01;;;;;;;2.65;2.45;;;;;;;15.89;94.04;97381.96;264500;1090;22868;-80
2021/08/05 18:29:10;;;;;;;2.53;2.33;;;;;;;15.85;94.00;97381.11;263963;1089;23630;-80
2021/08/05 18:34:30;;;;;;;2.10;1.80;;;;;;;15.78;94.13;97378.25;263048;1090;22801;-79
2021/08/05 18:39:37;;;;;;;3.23;1.90;;;;;;;15.67;94.13;97388.84;262310;1090;22911;-78
2021/08/05 18:44:43;;;;;;;2.45;2.25;;;;;;;15.54;94.32;97388.20;262104;1090;22925;-77
2021/08/05 18:49:49;;;;;;;2.03;1.73;;;;;;;15.45;94.71;97376.83;261987;1090;26334;-78
2021/08/05 18:54:59;;;;;;;1.70;1.60;;;;;;;15.38;95.14;97372.05;262488;1090;24351;-78
2021/08/05 19:00:30;;;;;;;1.33;1.30;;;;;;;15.35;95.31;97375.47;263150;1090;22798;-79
2021/08/05 19:05:54;;;;;;;1.60;1.50;;;;;;;15.32;95.39;97364.59;263687;1093;23680;-79
2021/08/05 19:11:18;;;;;;;2.70;1.57;;;;;;;15.32;95.60;97362.69;263422;1088;25784;-79
2021/08/05 19:16:44;;;;;;;1.30;1.20;;;;;;;15.25;95.04;97367.95;263756;1092;22797;-79
2021/08/05 19:22:01;;;;;;;1.40;1.30;;;;;;;15.13;95.07;97381.55;262143;1090;22867;-76
2021/08/05 19:27:42;;;;;;;1.80;1.70;;;;;;;15.01;95.71;97371.64;262290;1090;22841;-78
2021/08/05 19:34:03;;;;;;;2.00;1.90;;;;;;;14.95;96.37;97367.67;261816;1093;26314;-78
2021/08/05 19:39:30;;;;;;;2.30;2.10;;;;;;;14.94;96.58;97376.88;262442;1092;23025;-79
2021/08/05 19:44:38;;;;;;;3.55;3.25;;;;;;;14.95;96.97;97381.16;262888;1092;22887;-80
2021/08/05 19:50:28;;;;;;;3.50;3.20;;;;;;;14.95;96.87;97381.16;263122;1093;22789;-78
2021/08/05 19:56:43;;;;;;;;;;;;;;;;;;;;;
2021/08/05 20:02:06;;;;;;;3.17;2.97;;;;;;;14.88;96.56;97382.53;263944;1092;23027;-79
2021/08/05 20:07:14;;;;;;;3.30;3.05;;;;;;;14.87;96.72;97386.39;263363;1093;26232;-80
2021/08/05 20:12:28;;;;;;;3.60;3.30;;;;;;;14.85;96.54;97391.33;263631;1093;22801;-80
2021/08/05 20:17:51;;;;;;;3.75;3.45;;;;;;;14.82;96.50;97392.04;263548;1092;25774;-79
2021/08/05 20:23:10;;;;;;;;;;;;;;;14.80;96.40;97386.23;263311;1093;26270;-79
2021/08/05 20:29:01;;;;;;;3.07;2.87;;;;;;;14.78;96.69;97388.47;263791;1093;24048;-79
2021/08/05 20:34:19;;;;;;;2.65;2.45;;;;;;;14.76;96.71;97379.17;263797;1095;22886;-79
2021/08/05 20:39:49;;;;;;;3.20;2.90;;;;;;;14.74;96.75;97393.00;261975;1096;22881;-79
2021/08/05 20:45:25;;;;;;;2.90;2.70;;;;;;;14.70;96.87;97392.94;263008;1095;22843;-79
2021/08/05 20:50:58;;;;;;;2.65;2.45;;;;;;;14.70;96.80;97384.05;261992;1096;22836;-79
2021/08/05 20:56:20;;;;;;;2.60;2.40;;;;;;;14.70;96.92;97386.73;262613;1094;27042;-79
2021/08/05 21:01:32;;;;;;;1.80;1.70;;;;;;;14.67;96.84;97382.83;262150;1096;22798;-79
2021/08/05 21:06:49;;;;;;;2.30;2.17;;;;;;;14.69;97.30;97379.81;264399;1090;22806;-80
2021/08/05 21:12:07;;;;;;;2.40;2.30;;;;;;;14.69;97.20;97383.27;263637;1090;22809;-79
2021/08/05 21:18:06;;;;;;;2.33;1.93;;;;;;;14.68;97.03;97386.32;264553;1089;22809;-80
2021/08/05 21:23:12;;;;;;;2.10;1.90;;;;;;;14.66;97.23;97388.56;263139;1089;26404;-79
2021/08/05 21:28:30;;;;;;;;;;;;;;;;;;;;;
2021/08/05 21:34:08;;;;;;;1.85;1.75;;;;;;;14.61;96.95;97380.73;263663;1090;25292;-79
2021/08/05 21:39:20;;;;;;;2.15;2.05;;;;;;;14.56;97.19;97379.06;264098;1088;25790;-80
2021/08/05 21:44:24;;;;;;;;;;;;;;;14.55;97.28;97378.30;263025;1088;22846;-79
2021/08/05 21:49:58;;;;;;;4.13;2.30;;;;;;;14.48;97.08;97380.83;262884;1090;21470;-78
2021/08/05 21:55:31;;;;;;;2.93;2.10;;;;;;;14.38;97.29;97375.94;262089;1089;22857;-78
2021/08/05 22:01:29;;;;;;;2.70;2.50;;;;;;;14.29;96.99;97369.95;261670;1092;24439;-78
2021/08/05 22:07:49;;;;;;;3.40;2.93;;;;;;;14.24;97.26;97372.90;261832;1092;22809;-78
2021/08/05 22:13:36;;;;;;;2.80;2.60;;;;;;;14.15;97.45;97367.69;261610;1093;22789;-78
2021/08/05 22:18:58;;;;;;;4.80;3.60;;;;;;;14.10;97.81;97367.93;261876;1090;22779;-77
2021/08/05 22:24:38;;;;;;;3.35;3.05;;;;;;;14.05;97.94;97366.28;262007;1089;22870;-78
2021/08/05 22:29:52;;;;;;;5.70;4.85;;;;;;;14.02;98.11;97361.59;262054;1088;22841;-79
2021/08/05 22:35:06;;;;;;;5.10;4.70;;;;;;;14.04;98.50;97370.87;262004;1089;22809;-78
2021/08/05 22:40:38;;;;;;;3.65;3.35;;;;;;;14.03;98.63;97363.94;262032;1090;23008;-76
2021/08/05 22:45:59;;;;;;;5.10;4.70;;;;;;;14.02;98.74;97361.59;262048;1090;25954;-77
2021/08/05 22:51:32;;;;;;;5.80;5.30;;;;;;;14.04;98.77;97364.71;262106;1090;23221;-78
2021/08/05 22:57:35;;;;;;;5.75;5.15;;;;;;;14.04;99.11;97353.94;262126;1089;22827;-78
2021/08/05 23:03:18;;;;;;;4.70;4.30;;;;;;;14.05;98.93;97363.59;262042;1090;22942;-78
2021/08/05 23:08:31;;;;;;;3.85;3.55;;;;;;;14.05;99.25;97358.20;261973;1090;23527;-78
2021/08/05 23:14:13;;;;;;;;;;;;;;;;;;;;;
2021/08/05 23:19:56;;;;;;;2.70;2.50;;;;;;;13.99;99.29;97356.88;262025;1090;24547;-77
2021/08/05 23:25:20;;;;;;;2.27;2.17;;;;;;;13.98;99.41;97358.03;262025;1090;22829;-77
2021/08/05 23:30:58;;;;;;;;;;;;;;;;;;;;;
2021/08/05 23:36:10;;;;;;;2.30;2.10;;;;;;;13.92;99.47;97354.80;261971;1090;22779;-78
2021/08/05 23:41:36;;;;;;;2.10;2.00;;;;;;;13.90;99.81;97359.73;262277;1090;25982;-79
2021/08/05 23:46:42;;;;;;;;;;;;;;;13.91;99.89;97353.23;262473;1090;23033;-79
2021/08/05 23:51:58;;;;;;;2.55;2.35;;;;;;;13.91;100.00;97361.31;262211;1090;21518;-78
2021/08/05 23:57:15;;;;;;;2.23;2.13;;;;;;;13.88;100.00;97351.23;261995;1090;27438;-77
